Weather history for 0324

Weather History For Prescott AZ

This page updates 5 minutes after midnight. GMT -7

Station: KPRC0 Rows: 26

Return to today's weather
Year Date Temp (°F) Tmin (°F) Tmax (°F) RH% Prcp Snow Wind Gust Pres Sun Cloud
2000 2000-03-24 47.5 33.1 64.0 47 9.7 29.96 1
2001 2001-03-24 55.2 39.0 72.0 37 9.3 29.95 0
2002 2002-03-24 42.8 35.6 51.8 54 19.7 29.77 6
2003 2003-03-24 52.7 39.2 64.4 45 13.4 29.86 0
2004 2004-03-24 59.5 42.8 73.4 38 12.3 29.88 0
2005 2005-03-24 40.8 33.1 46.9 67 12.1 29.85 6
2006 2006-03-24 48.9 30.9 66.9 44 0.0 8.2 30.06 0
2007 2007-03-24 47.3 42.1 55.0 75 5.3 29.99 6
2008 2008-03-24 51.6 30.9 73.0 25 0.0 6.9 30.04 0
2009 2009-03-24 44.2 28.9 59.0 32 0.0 8.9 29.97 0
2010 2010-03-24 45.7 30.0 61.0 30 0.0 10.6 30.01 0
2011 2011-03-24 46.0 36.0 57.0 37 15.8 29.85 2
2012 2012-03-24 53.8 37.9 69.1 40 0.0 13.8 29.93 0
2013 2013-03-24 45.7 27.0 64.0 20 0.0 11.9 29.96 0
2014 2014-03-24 56.3 37.9 71.1 23 0.0 7.7 30.00 0
2015 2015-03-24 52.5 37.9 66.9 32 0.0 11.7 29.96 0
2016 2016-03-24 48.9 32.0 64.9 25 0.0 11.6 30.01 0
2017 2017-03-24 49.3 33.1 64.9 52 0.0 7.2 30.12 0
2018 2018-03-24 50.5 37.0 60.1 40 0.0 15.4 29.85 0
2019 2019-03-24 50.9 33.1 64.9 38 0.0 12.0 30.06 0
2020 2020-03-24 45.9 32.0 57.9 61 0.0 12.5 30.04 0
2021 2021-03-24 40.3 33.1 50.0 60 0.0 17.4 29.77
2022 2022-03-24 54.5 35.1 75.0 23 0.0 11.5 30.06 0
2023 2023-03-24 39.9 28.9 51.1 63 14.0 30.00 2
2024 2024-03-24 39.4 33.1 46.9 73 20.4 29.54 5
2025 2025-03-24 59.2 41.0 75.9 30 0.0 7.0 30.05 0
Average Low 34.6
Average High 62.6

Daily High / Low by Year (03/24)

Barometric Pressure by Year (03/24)

Weather data provided by Meteostat